sensor_id;sensor_type;location;lat;lon;timestamp;P1;durP1;ratioP1;P2;durP2;ratioP2
50241;SDS011;36126;43.222;27.874;2022-07-23T00:00:49;13.10;;;5.65;;
50241;SDS011;36126;43.222;27.874;2022-07-23T00:03:15;13.38;;;4.95;;
50241;SDS011;36126;43.222;27.874;2022-07-23T00:05:41;9.70;;;4.95;;
50241;SDS011;36126;43.222;27.874;2022-07-23T00:08:07;12.07;;;4.82;;
50241;SDS011;36126;43.222;27.874;2022-07-23T00:10:33;8.00;;;4.47;;
50241;SDS011;36126;43.222;27.874;2022-07-23T00:12:59;11.20;;;4.85;;
50241;SDS011;36126;43.222;27.874;2022-07-23T00:15:24;12.98;;;5.05;;
50241;SDS011;36126;43.222;27.874;2022-07-23T00:17:50;16.73;;;5.28;;
50241;SDS011;36126;43.222;27.874;2022-07-23T00:20:16;11.40;;;4.68;;
50241;SDS011;36126;43.222;27.874;2022-07-23T00:22:48;11.57;;;4.90;;
50241;SDS011;36126;43.222;27.874;2022-07-23T00:25:15;18.13;;;5.07;;
50241;SDS011;36126;43.222;27.874;2022-07-23T00:27:40;11.45;;;4.47;;
50241;SDS011;36126;43.222;27.874;2022-07-23T00:30:06;15.82;;;4.63;;
50241;SDS011;36126;43.222;27.874;2022-07-23T00:32:32;19.95;;;5.30;;
50241;SDS011;36126;43.222;27.874;2022-07-23T00:34:58;16.05;;;5.97;;
50241;SDS011;36126;43.222;27.874;2022-07-23T00:37:23;19.30;;;6.65;;
50241;SDS011;36126;43.222;27.874;2022-07-23T00:39:49;18.08;;;5.57;;
50241;SDS011;36126;43.222;27.874;2022-07-23T00:42:14;17.10;;;6.18;;
50241;SDS011;36126;43.222;27.874;2022-07-23T00:44:40;16.08;;;6.07;;
50241;SDS011;36126;43.222;27.874;2022-07-23T00:47:05;16.20;;;5.72;;
50241;SDS011;36126;43.222;27.874;2022-07-23T00:49:31;16.33;;;5.97;;
50241;SDS011;36126;43.222;27.874;2022-07-23T00:51:57;17.92;;;6.32;;
50241;SDS011;36126;43.222;27.874;2022-07-23T00:54:26;16.15;;;5.13;;
50241;SDS011;36126;43.222;27.874;2022-07-23T00:56:52;12.57;;;5.22;;
50241;SDS011;36126;43.222;27.874;2022-07-23T00:59:18;9.55;;;4.80;;
50241;SDS011;36126;43.222;27.874;2022-07-23T01:01:44;11.05;;;5.13;;
50241;SDS011;36126;43.222;27.874;2022-07-23T01:04:12;12.38;;;5.65;;
50241;SDS011;36126;43.222;27.874;2022-07-23T01:06:40;15.38;;;5.78;;
50241;SDS011;36126;43.222;27.874;2022-07-23T01:09:06;18.13;;;6.57;;
50241;SDS011;36126;43.222;27.874;2022-07-23T01:11:36;18.35;;;5.75;;
50241;SDS011;36126;43.222;27.874;2022-07-23T01:14:11;20.70;;;5.70;;
50241;SDS011;36126;43.222;27.874;2022-07-23T01:16:40;17.85;;;5.75;;
50241;SDS011;36126;43.222;27.874;2022-07-23T01:19:06;13.70;;;5.32;;
50241;SDS011;36126;43.222;27.874;2022-07-23T01:21:36;19.83;;;5.88;;
50241;SDS011;36126;43.222;27.874;2022-07-23T01:24:05;15.07;;;5.40;;
50241;SDS011;36126;43.222;27.874;2022-07-23T01:26:31;23.70;;;5.72;;
50241;SDS011;36126;43.222;27.874;2022-07-23T01:28:57;19.08;;;5.97;;
50241;SDS011;36126;43.222;27.874;2022-07-23T01:31:22;14.85;;;5.45;;
50241;SDS011;36126;43.222;27.874;2022-07-23T01:33:48;22.15;;;5.45;;
50241;SDS011;36126;43.222;27.874;2022-07-23T01:36:13;11.73;;;5.20;;
50241;SDS011;36126;43.222;27.874;2022-07-23T01:38:39;13.07;;;5.00;;
50241;SDS011;36126;43.222;27.874;2022-07-23T01:41:05;17.40;;;5.95;;
50241;SDS011;36126;43.222;27.874;2022-07-23T01:43:30;14.25;;;4.97;;
50241;SDS011;36126;43.222;27.874;2022-07-23T01:45:56;11.63;;;4.97;;
50241;SDS011;36126;43.222;27.874;2022-07-23T01:48:21;16.15;;;4.78;;
50241;SDS011;36126;43.222;27.874;2022-07-23T01:50:47;13.73;;;4.65;;
50241;SDS011;36126;43.222;27.874;2022-07-23T01:53:13;11.15;;;5.07;;
50241;SDS011;36126;43.222;27.874;2022-07-23T01:55:39;17.52;;;5.30;;
50241;SDS011;36126;43.222;27.874;2022-07-23T01:58:04;15.45;;;4.88;;
50241;SDS011;36126;43.222;27.874;2022-07-23T02:00:30;11.93;;;5.63;;
50241;SDS011;36126;43.222;27.874;2022-07-23T02:02:56;10.63;;;5.32;;
50241;SDS011;36126;43.222;27.874;2022-07-23T02:05:23;21.75;;;5.80;;
50241;SDS011;36126;43.222;27.874;2022-07-23T02:07:50;16.00;;;5.30;;
50241;SDS011;36126;43.222;27.874;2022-07-23T02:10:15;16.92;;;4.93;;
50241;SDS011;36126;43.222;27.874;2022-07-23T02:12:41;13.20;;;5.97;;
50241;SDS011;36126;43.222;27.874;2022-07-23T02:15:07;18.30;;;6.68;;
50241;SDS011;36126;43.222;27.874;2022-07-23T02:17:33;20.45;;;7.22;;
50241;SDS011;36126;43.222;27.874;2022-07-23T02:19:58;23.05;;;7.80;;
50241;SDS011;36126;43.222;27.874;2022-07-23T02:22:24;19.35;;;7.68;;
50241;SDS011;36126;43.222;27.874;2022-07-23T02:24:49;24.73;;;8.35;;
50241;SDS011;36126;43.222;27.874;2022-07-23T02:27:15;21.58;;;8.02;;
50241;SDS011;36126;43.222;27.874;2022-07-23T02:29:40;24.73;;;8.85;;
50241;SDS011;36126;43.222;27.874;2022-07-23T02:32:06;26.10;;;7.93;;
50241;SDS011;36126;43.222;27.874;2022-07-23T02:34:31;31.25;;;9.52;;
50241;SDS011;36126;43.222;27.874;2022-07-23T02:36:56;23.52;;;8.48;;
50241;SDS011;36126;43.222;27.874;2022-07-23T02:39:22;30.13;;;8.70;;
50241;SDS011;36126;43.222;27.874;2022-07-23T02:41:48;23.20;;;7.90;;
50241;SDS011;36126;43.222;27.874;2022-07-23T02:44:13;35.50;;;9.35;;
50241;SDS011;36126;43.222;27.874;2022-07-23T02:46:38;23.00;;;8.23;;
50241;SDS011;36126;43.222;27.874;2022-07-23T02:49:04;26.95;;;8.55;;
50241;SDS011;36126;43.222;27.874;2022-07-23T02:51:30;28.80;;;8.90;;
50241;SDS011;36126;43.222;27.874;2022-07-23T02:53:56;32.65;;;10.05;;
50241;SDS011;36126;43.222;27.874;2022-07-23T02:56:21;18.75;;;8.98;;
50241;SDS011;36126;43.222;27.874;2022-07-23T02:58:47;35.60;;;8.70;;
50241;SDS011;36126;43.222;27.874;2022-07-23T03:01:12;30.20;;;10.00;;
50241;SDS011;36126;43.222;27.874;2022-07-23T03:03:38;38.28;;;9.98;;
50241;SDS011;36126;43.222;27.874;2022-07-23T03:06:03;29.63;;;9.20;;
50241;SDS011;36126;43.222;27.874;2022-07-23T03:08:29;21.52;;;8.60;;
50241;SDS011;36126;43.222;27.874;2022-07-23T03:10:55;29.10;;;8.50;;
50241;SDS011;36126;43.222;27.874;2022-07-23T03:13:20;19.30;;;8.20;;
50241;SDS011;36126;43.222;27.874;2022-07-23T03:15:45;25.45;;;8.30;;
50241;SDS011;36126;43.222;27.874;2022-07-23T03:18:11;26.58;;;8.48;;
50241;SDS011;36126;43.222;27.874;2022-07-23T03:20:37;23.85;;;8.45;;
50241;SDS011;36126;43.222;27.874;2022-07-23T03:23:02;32.08;;;7.85;;
50241;SDS011;36126;43.222;27.874;2022-07-23T03:25:28;20.67;;;8.07;;
50241;SDS011;36126;43.222;27.874;2022-07-23T03:27:53;27.13;;;8.77;;
50241;SDS011;36126;43.222;27.874;2022-07-23T03:30:19;20.77;;;8.52;;
50241;SDS011;36126;43.222;27.874;2022-07-23T03:32:44;20.95;;;8.93;;
50241;SDS011;36126;43.222;27.874;2022-07-23T03:35:10;21.08;;;7.60;;
50241;SDS011;36126;43.222;27.874;2022-07-23T03:37:35;19.05;;;7.82;;
50241;SDS011;36126;43.222;27.874;2022-07-23T03:40:01;16.77;;;7.25;;
50241;SDS011;36126;43.222;27.874;2022-07-23T03:42:27;27.67;;;8.15;;
50241;SDS011;36126;43.222;27.874;2022-07-23T03:44:52;26.05;;;8.07;;
50241;SDS011;36126;43.222;27.874;2022-07-23T03:47:18;25.92;;;8.48;;
50241;SDS011;36126;43.222;27.874;2022-07-23T03:49:46;31.70;;;9.32;;
50241;SDS011;36126;43.222;27.874;2022-07-23T03:52:13;32.80;;;9.73;;
50241;SDS011;36126;43.222;27.874;2022-07-23T03:54:39;26.75;;;10.75;;
50241;SDS011;36126;43.222;27.874;2022-07-23T03:57:04;28.70;;;9.48;;
50241;SDS011;36126;43.222;27.874;2022-07-23T03:59:30;22.70;;;8.73;;
50241;SDS011;36126;43.222;27.874;2022-07-23T04:01:55;35.58;;;10.48;;
50241;SDS011;36126;43.222;27.874;2022-07-23T04:04:21;25.80;;;9.27;;
50241;SDS011;36126;43.222;27.874;2022-07-23T04:06:46;22.75;;;10.00;;
50241;SDS011;36126;43.222;27.874;2022-07-23T04:09:12;31.60;;;10.32;;
50241;SDS011;36126;43.222;27.874;2022-07-23T04:11:38;28.85;;;9.73;;
50241;SDS011;36126;43.222;27.874;2022-07-23T04:14:03;25.13;;;9.45;;
50241;SDS011;36126;43.222;27.874;2022-07-23T04:16:29;25.77;;;8.70;;
50241;SDS011;36126;43.222;27.874;2022-07-23T04:18:56;25.67;;;9.15;;
50241;SDS011;36126;43.222;27.874;2022-07-23T04:21:22;18.30;;;8.57;;
50241;SDS011;36126;43.222;27.874;2022-07-23T04:23:49;16.52;;;8.35;;
50241;SDS011;36126;43.222;27.874;2022-07-23T04:26:14;23.92;;;9.73;;
50241;SDS011;36126;43.222;27.874;2022-07-23T04:28:40;23.98;;;8.05;;
50241;SDS011;36126;43.222;27.874;2022-07-23T04:31:06;17.52;;;7.15;;
50241;SDS011;36126;43.222;27.874;2022-07-23T04:33:32;17.42;;;6.93;;
50241;SDS011;36126;43.222;27.874;2022-07-23T04:35:58;15.38;;;6.95;;
50241;SDS011;36126;43.222;27.874;2022-07-23T04:38:23;12.15;;;5.75;;
50241;SDS011;36126;43.222;27.874;2022-07-23T04:40:49;14.43;;;6.35;;
50241;SDS011;36126;43.222;27.874;2022-07-23T04:43:14;18.13;;;6.72;;
50241;SDS011;36126;43.222;27.874;2022-07-23T04:45:40;17.83;;;6.82;;
50241;SDS011;36126;43.222;27.874;2022-07-23T04:48:05;20.95;;;6.15;;
50241;SDS011;36126;43.222;27.874;2022-07-23T04:50:31;22.70;;;6.93;;
50241;SDS011;36126;43.222;27.874;2022-07-23T04:52:57;17.45;;;6.53;;
50241;SDS011;36126;43.222;27.874;2022-07-23T04:55:22;22.60;;;7.57;;
50241;SDS011;36126;43.222;27.874;2022-07-23T04:57:48;19.67;;;7.97;;
50241;SDS011;36126;43.222;27.874;2022-07-23T05:00:13;28.27;;;9.15;;
50241;SDS011;36126;43.222;27.874;2022-07-23T05:02:39;20.48;;;8.45;;
50241;SDS011;36126;43.222;27.874;2022-07-23T05:05:05;17.88;;;8.60;;
50241;SDS011;36126;43.222;27.874;2022-07-23T05:07:31;22.15;;;8.82;;
50241;SDS011;36126;43.222;27.874;2022-07-23T05:09:56;22.98;;;8.20;;
50241;SDS011;36126;43.222;27.874;2022-07-23T05:12:21;19.42;;;8.68;;
50241;SDS011;36126;43.222;27.874;2022-07-23T05:14:47;24.17;;;7.82;;
50241;SDS011;36126;43.222;27.874;2022-07-23T05:17:12;19.73;;;8.43;;
50241;SDS011;36126;43.222;27.874;2022-07-23T05:19:38;25.35;;;7.15;;
50241;SDS011;36126;43.222;27.874;2022-07-23T05:22:03;22.15;;;7.13;;
50241;SDS011;36126;43.222;27.874;2022-07-23T05:24:29;16.02;;;6.97;;
50241;SDS011;36126;43.222;27.874;2022-07-23T05:26:55;18.63;;;6.95;;
50241;SDS011;36126;43.222;27.874;2022-07-23T05:29:20;21.70;;;5.65;;
50241;SDS011;36126;43.222;27.874;2022-07-23T05:31:46;19.80;;;4.93;;
50241;SDS011;36126;43.222;27.874;2022-07-23T05:34:11;10.63;;;4.72;;
50241;SDS011;36126;43.222;27.874;2022-07-23T05:36:37;22.02;;;5.30;;
50241;SDS011;36126;43.222;27.874;2022-07-23T05:39:03;17.55;;;5.47;;
50241;SDS011;36126;43.222;27.874;2022-07-23T05:41:28;17.10;;;4.65;;
50241;SDS011;36126;43.222;27.874;2022-07-23T05:43:54;19.63;;;5.05;;
50241;SDS011;36126;43.222;27.874;2022-07-23T05:46:20;17.40;;;5.20;;
50241;SDS011;36126;43.222;27.874;2022-07-23T05:48:45;25.52;;;5.45;;
50241;SDS011;36126;43.222;27.874;2022-07-23T05:51:18;15.45;;;5.38;;
50241;SDS011;36126;43.222;27.874;2022-07-23T05:53:45;15.95;;;5.47;;
50241;SDS011;36126;43.222;27.874;2022-07-23T05:56:11;20.27;;;6.72;;
50241;SDS011;36126;43.222;27.874;2022-07-23T05:58:36;14.05;;;5.72;;
50241;SDS011;36126;43.222;27.874;2022-07-23T06:01:02;17.70;;;6.28;;
50241;SDS011;36126;43.222;27.874;2022-07-23T06:03:27;20.80;;;7.20;;
50241;SDS011;36126;43.222;27.874;2022-07-23T06:05:53;18.10;;;7.15;;
50241;SDS011;36126;43.222;27.874;2022-07-23T06:08:18;19.85;;;10.60;;
50241;SDS011;36126;43.222;27.874;2022-07-23T06:10:44;12.95;;;5.47;;
50241;SDS011;36126;43.222;27.874;2022-07-23T06:13:09;12.40;;;5.55;;
50241;SDS011;36126;43.222;27.874;2022-07-23T06:15:35;21.77;;;9.55;;
50241;SDS011;36126;43.222;27.874;2022-07-23T06:18:00;10.00;;;5.05;;
50241;SDS011;36126;43.222;27.874;2022-07-23T06:20:26;16.95;;;6.25;;
50241;SDS011;36126;43.222;27.874;2022-07-23T06:22:51;16.52;;;9.25;;
50241;SDS011;36126;43.222;27.874;2022-07-23T06:25:17;15.52;;;5.97;;
50241;SDS011;36126;43.222;27.874;2022-07-23T06:27:42;24.00;;;4.72;;
50241;SDS011;36126;43.222;27.874;2022-07-23T06:30:08;14.25;;;6.32;;
50241;SDS011;36126;43.222;27.874;2022-07-23T06:32:35;11.55;;;4.75;;
50241;SDS011;36126;43.222;27.874;2022-07-23T06:35:00;15.40;;;5.55;;
50241;SDS011;36126;43.222;27.874;2022-07-23T06:37:26;11.88;;;4.50;;
50241;SDS011;36126;43.222;27.874;2022-07-23T06:39:51;13.82;;;4.63;;
50241;SDS011;36126;43.222;27.874;2022-07-23T06:42:17;14.70;;;4.45;;
50241;SDS011;36126;43.222;27.874;2022-07-23T06:44:42;10.70;;;4.20;;
50241;SDS011;36126;43.222;27.874;2022-07-23T06:47:08;15.02;;;4.10;;
50241;SDS011;36126;43.222;27.874;2022-07-23T06:49:34;14.52;;;3.97;;
50241;SDS011;36126;43.222;27.874;2022-07-23T06:51:59;15.60;;;3.90;;
50241;SDS011;36126;43.222;27.874;2022-07-23T06:54:25;13.70;;;4.00;;
50241;SDS011;36126;43.222;27.874;2022-07-23T06:56:50;11.07;;;3.78;;
50241;SDS011;36126;43.222;27.874;2022-07-23T06:59:16;15.80;;;4.82;;
50241;SDS011;36126;43.222;27.874;2022-07-23T07:01:41;13.65;;;4.18;;
50241;SDS011;36126;43.222;27.874;2022-07-23T07:04:07;11.40;;;3.75;;
50241;SDS011;36126;43.222;27.874;2022-07-23T07:06:32;11.32;;;3.65;;
50241;SDS011;36126;43.222;27.874;2022-07-23T07:08:58;10.98;;;4.13;;
50241;SDS011;36126;43.222;27.874;2022-07-23T07:11:23;7.50;;;3.42;;
50241;SDS011;36126;43.222;27.874;2022-07-23T07:13:50;9.45;;;4.20;;
50241;SDS011;36126;43.222;27.874;2022-07-23T07:16:16;14.35;;;3.85;;
50241;SDS011;36126;43.222;27.874;2022-07-23T07:18:41;12.88;;;3.88;;
50241;SDS011;36126;43.222;27.874;2022-07-23T07:21:07;15.25;;;4.10;;
50241;SDS011;36126;43.222;27.874;2022-07-23T07:23:32;8.65;;;3.88;;
50241;SDS011;36126;43.222;27.874;2022-07-23T07:25:58;10.07;;;4.35;;
50241;SDS011;36126;43.222;27.874;2022-07-23T07:28:23;9.27;;;3.88;;
50241;SDS011;36126;43.222;27.874;2022-07-23T07:30:49;14.30;;;4.65;;
50241;SDS011;36126;43.222;27.874;2022-07-23T07:33:14;12.38;;;4.68;;
50241;SDS011;36126;43.222;27.874;2022-07-23T07:35:40;7.90;;;3.90;;
50241;SDS011;36126;43.222;27.874;2022-07-23T07:38:06;14.40;;;4.32;;
50241;SDS011;36126;43.222;27.874;2022-07-23T07:40:31;5.80;;;3.30;;
50241;SDS011;36126;43.222;27.874;2022-07-23T07:42:57;8.15;;;4.00;;
50241;SDS011;36126;43.222;27.874;2022-07-23T07:45:23;9.73;;;3.45;;
50241;SDS011;36126;43.222;27.874;2022-07-23T07:47:50;10.00;;;3.65;;
50241;SDS011;36126;43.222;27.874;2022-07-23T07:50:17;10.35;;;3.72;;
50241;SDS011;36126;43.222;27.874;2022-07-23T07:52:44;9.90;;;3.20;;
50241;SDS011;36126;43.222;27.874;2022-07-23T07:55:12;8.40;;;3.50;;
50241;SDS011;36126;43.222;27.874;2022-07-23T07:57:38;35.00;;;23.42;;
50241;SDS011;36126;43.222;27.874;2022-07-23T08:00:04;23.52;;;11.85;;
50241;SDS011;36126;43.222;27.874;2022-07-23T08:02:42;34.67;;;23.23;;
50241;SDS011;36126;43.222;27.874;2022-07-23T08:05:14;18.92;;;11.00;;
50241;SDS011;36126;43.222;27.874;2022-07-23T08:07:47;18.88;;;5.18;;
50241;SDS011;36126;43.222;27.874;2022-07-23T08:10:14;14.77;;;4.50;;
50241;SDS011;36126;43.222;27.874;2022-07-23T08:12:40;14.25;;;4.68;;
50241;SDS011;36126;43.222;27.874;2022-07-23T08:15:07;15.85;;;9.48;;
50241;SDS011;36126;43.222;27.874;2022-07-23T08:17:34;7.60;;;3.63;;
50241;SDS011;36126;43.222;27.874;2022-07-23T08:19:59;5.22;;;3.00;;
50241;SDS011;36126;43.222;27.874;2022-07-23T08:22:25;11.48;;;3.58;;
50241;SDS011;36126;43.222;27.874;2022-07-23T08:24:50;10.80;;;4.00;;
50241;SDS011;36126;43.222;27.874;2022-07-23T08:27:16;4.90;;;3.15;;
50241;SDS011;36126;43.222;27.874;2022-07-23T08:29:41;6.10;;;3.47;;
50241;SDS011;36126;43.222;27.874;2022-07-23T08:32:07;7.57;;;3.22;;
50241;SDS011;36126;43.222;27.874;2022-07-23T08:34:32;7.70;;;3.63;;
50241;SDS011;36126;43.222;27.874;2022-07-23T08:36:58;6.72;;;3.83;;
50241;SDS011;36126;43.222;27.874;2022-07-23T08:39:23;9.63;;;4.15;;
50241;SDS011;36126;43.222;27.874;2022-07-23T08:41:49;7.45;;;3.45;;
50241;SDS011;36126;43.222;27.874;2022-07-23T08:44:18;6.35;;;3.33;;
50241;SDS011;36126;43.222;27.874;2022-07-23T08:46:43;4.95;;;3.60;;
50241;SDS011;36126;43.222;27.874;2022-07-23T08:49:10;7.18;;;3.28;;
50241;SDS011;36126;43.222;27.874;2022-07-23T08:51:35;16.13;;;7.63;;
50241;SDS011;36126;43.222;27.874;2022-07-23T08:54:01;4.68;;;3.42;;
50241;SDS011;36126;43.222;27.874;2022-07-23T08:56:26;7.93;;;3.13;;
50241;SDS011;36126;43.222;27.874;2022-07-23T08:58:53;6.20;;;3.22;;
50241;SDS011;36126;43.222;27.874;2022-07-23T09:01:19;6.55;;;3.45;;
50241;SDS011;36126;43.222;27.874;2022-07-23T09:03:44;6.22;;;3.13;;
50241;SDS011;36126;43.222;27.874;2022-07-23T09:06:10;5.30;;;2.97;;
50241;SDS011;36126;43.222;27.874;2022-07-23T09:08:39;15.45;;;3.20;;
50241;SDS011;36126;43.222;27.874;2022-07-23T09:11:06;10.65;;;4.78;;
50241;SDS011;36126;43.222;27.874;2022-07-23T09:21:26;16.65;;;3.90;;
50241;SDS011;36126;43.222;27.874;2022-07-23T09:24:03;9.65;;;3.28;;
50241;SDS011;36126;43.222;27.874;2022-07-23T09:29:18;4.50;;;3.30;;
50241;SDS011;36126;43.222;27.874;2022-07-23T09:31:47;8.52;;;3.63;;
50241;SDS011;36126;43.222;27.874;2022-07-23T09:36:48;9.15;;;3.30;;
50241;SDS011;36126;43.222;27.874;2022-07-23T09:39:15;6.43;;;3.80;;
50241;SDS011;36126;43.222;27.874;2022-07-23T09:41:49;9.63;;;3.25;;
50241;SDS011;36126;43.222;27.874;2022-07-23T09:44:16;7.20;;;3.58;;
50241;SDS011;36126;43.222;27.874;2022-07-23T09:46:44;8.80;;;3.03;;
50241;SDS011;36126;43.222;27.874;2022-07-23T09:49:29;7.45;;;3.35;;
50241;SDS011;36126;43.222;27.874;2022-07-23T09:51:57;13.00;;;3.67;;
50241;SDS011;36126;43.222;27.874;2022-07-23T09:56:52;8.00;;;3.35;;
50241;SDS011;36126;43.222;27.874;2022-07-23T09:59:25;8.38;;;3.45;;
50241;SDS011;36126;43.222;27.874;2022-07-23T10:01:53;10.35;;;3.20;;
50241;SDS011;36126;43.222;27.874;2022-07-23T10:04:22;5.88;;;3.22;;
50241;SDS011;36126;43.222;27.874;2022-07-23T10:06:53;9.25;;;3.45;;
50241;SDS011;36126;43.222;27.874;2022-07-23T10:09:24;4.93;;;3.05;;
50241;SDS011;36126;43.222;27.874;2022-07-23T10:11:52;10.60;;;4.35;;
50241;SDS011;36126;43.222;27.874;2022-07-23T10:14:25;12.10;;;3.72;;
50241;SDS011;36126;43.222;27.874;2022-07-23T10:16:51;8.20;;;3.72;;
50241;SDS011;36126;43.222;27.874;2022-07-23T10:19:17;5.00;;;3.28;;
50241;SDS011;36126;43.222;27.874;2022-07-23T10:21:46;8.50;;;3.45;;
50241;SDS011;36126;43.222;27.874;2022-07-23T10:33:20;10.30;;;3.50;;
50241;SDS011;36126;43.222;27.874;2022-07-23T10:41:31;9.88;;;3.78;;
50241;SDS011;36126;43.222;27.874;2022-07-23T10:44:13;4.93;;;3.28;;
50241;SDS011;36126;43.222;27.874;2022-07-23T10:49:29;12.52;;;4.28;;
50241;SDS011;36126;43.222;27.874;2022-07-23T10:54:40;8.85;;;3.60;;
50241;SDS011;36126;43.222;27.874;2022-07-23T10:57:09;7.60;;;4.00;;
50241;SDS011;36126;43.222;27.874;2022-07-23T11:02:40;9.93;;;4.45;;
50241;SDS011;36126;43.222;27.874;2022-07-23T11:05:08;5.57;;;3.70;;
50241;SDS011;36126;43.222;27.874;2022-07-23T11:07:36;11.75;;;3.78;;
50241;SDS011;36126;43.222;27.874;2022-07-23T11:10:32;6.60;;;3.67;;
50241;SDS011;36126;43.222;27.874;2022-07-23T11:13:25;7.70;;;4.38;;
50241;SDS011;36126;43.222;27.874;2022-07-23T11:19:12;4.55;;;3.33;;
50241;SDS011;36126;43.222;27.874;2022-07-23T11:32:24;8.95;;;3.97;;
50241;SDS011;36126;43.222;27.874;2022-07-23T11:34:55;8.52;;;3.30;;
50241;SDS011;36126;43.222;27.874;2022-07-23T11:40:00;9.93;;;3.13;;
50241;SDS011;36126;43.222;27.874;2022-07-23T11:42:28;4.65;;;3.33;;
50241;SDS011;36126;43.222;27.874;2022-07-23T11:44:53;10.52;;;3.75;;
50241;SDS011;36126;43.222;27.874;2022-07-23T11:47:23;14.70;;;3.90;;
50241;SDS011;36126;43.222;27.874;2022-07-23T11:49:57;5.78;;;3.55;;
50241;SDS011;36126;43.222;27.874;2022-07-23T11:52:26;10.48;;;3.90;;
50241;SDS011;36126;43.222;27.874;2022-07-23T11:55:04;7.18;;;4.03;;
50241;SDS011;36126;43.222;27.874;2022-07-23T11:57:33;13.23;;;3.40;;
50241;SDS011;36126;43.222;27.874;2022-07-23T12:02:35;7.90;;;4.32;;
50241;SDS011;36126;43.222;27.874;2022-07-23T12:05:00;13.60;;;3.90;;
50241;SDS011;36126;43.222;27.874;2022-07-23T12:07:36;7.35;;;3.83;;
50241;SDS011;36126;43.222;27.874;2022-07-23T12:12:57;6.68;;;3.95;;
50241;SDS011;36126;43.222;27.874;2022-07-23T12:15:29;12.02;;;4.93;;
50241;SDS011;36126;43.222;27.874;2022-07-23T12:17:57;6.50;;;3.55;;
50241;SDS011;36126;43.222;27.874;2022-07-23T12:20:28;8.13;;;3.75;;
50241;SDS011;36126;43.222;27.874;2022-07-23T12:22:59;5.95;;;3.60;;
50241;SDS011;36126;43.222;27.874;2022-07-23T12:25:28;6.93;;;3.58;;
50241;SDS011;36126;43.222;27.874;2022-07-23T12:28:14;6.78;;;3.92;;
50241;SDS011;36126;43.222;27.874;2022-07-23T12:30:52;6.05;;;3.97;;
50241;SDS011;36126;43.222;27.874;2022-07-23T12:35:52;6.65;;;3.70;;
50241;SDS011;36126;43.222;27.874;2022-07-23T12:38:21;10.93;;;6.07;;
50241;SDS011;36126;43.222;27.874;2022-07-23T12:43:28;10.32;;;3.78;;
50241;SDS011;36126;43.222;27.874;2022-07-23T12:45:56;9.52;;;4.10;;
50241;SDS011;36126;43.222;27.874;2022-07-23T12:48:51;9.00;;;3.58;;
50241;SDS011;36126;43.222;27.874;2022-07-23T12:51:19;5.32;;;3.60;;
50241;SDS011;36126;43.222;27.874;2022-07-23T12:53:59;6.22;;;4.18;;
50241;SDS011;36126;43.222;27.874;2022-07-23T12:56:30;5.55;;;3.45;;
50241;SDS011;36126;43.222;27.874;2022-07-23T13:01:30;5.85;;;3.53;;
50241;SDS011;36126;43.222;27.874;2022-07-23T13:06:24;8.85;;;3.67;;
50241;SDS011;36126;43.222;27.874;2022-07-23T13:08:51;5.93;;;3.72;;
50241;SDS011;36126;43.222;27.874;2022-07-23T13:11:16;6.85;;;3.97;;
50241;SDS011;36126;43.222;27.874;2022-07-23T13:13:42;12.20;;;3.45;;
50241;SDS011;36126;43.222;27.874;2022-07-23T13:16:07;7.80;;;3.28;;
50241;SDS011;36126;43.222;27.874;2022-07-23T13:18:33;6.13;;;3.50;;
50241;SDS011;36126;43.222;27.874;2022-07-23T13:20:59;6.72;;;3.28;;
50241;SDS011;36126;43.222;27.874;2022-07-23T13:23:26;7.45;;;3.80;;
50241;SDS011;36126;43.222;27.874;2022-07-23T13:25:52;7.90;;;2.83;;
50241;SDS011;36126;43.222;27.874;2022-07-23T13:28:18;24.13;;;3.95;;
50241;SDS011;36126;43.222;27.874;2022-07-23T13:30:45;7.85;;;3.40;;
50241;SDS011;36126;43.222;27.874;2022-07-23T13:33:14;9.52;;;4.28;;
50241;SDS011;36126;43.222;27.874;2022-07-23T13:35:41;6.60;;;3.50;;
50241;SDS011;36126;43.222;27.874;2022-07-23T13:38:07;6.38;;;3.33;;
50241;SDS011;36126;43.222;27.874;2022-07-23T13:40:33;7.45;;;3.60;;
50241;SDS011;36126;43.222;27.874;2022-07-23T13:43:00;14.30;;;4.47;;
50241;SDS011;36126;43.222;27.874;2022-07-23T13:45:26;6.28;;;4.18;;
50241;SDS011;36126;43.222;27.874;2022-07-23T13:47:51;13.60;;;4.03;;
50241;SDS011;36126;43.222;27.874;2022-07-23T13:50:17;8.20;;;3.67;;
50241;SDS011;36126;43.222;27.874;2022-07-23T13:52:43;8.88;;;4.00;;
50241;SDS011;36126;43.222;27.874;2022-07-23T13:55:08;7.90;;;3.72;;
50241;SDS011;36126;43.222;27.874;2022-07-23T13:57:34;9.23;;;3.55;;
50241;SDS011;36126;43.222;27.874;2022-07-23T14:00:00;5.05;;;3.65;;
50241;SDS011;36126;43.222;27.874;2022-07-23T14:02:28;7.13;;;3.20;;
50241;SDS011;36126;43.222;27.874;2022-07-23T14:04:54;8.68;;;4.25;;
50241;SDS011;36126;43.222;27.874;2022-07-23T14:07:19;7.32;;;3.03;;
50241;SDS011;36126;43.222;27.874;2022-07-23T14:09:45;7.50;;;3.17;;
50241;SDS011;36126;43.222;27.874;2022-07-23T14:12:10;7.72;;;3.20;;
50241;SDS011;36126;43.222;27.874;2022-07-23T14:14:37;3.88;;;2.80;;
50241;SDS011;36126;43.222;27.874;2022-07-23T14:17:03;5.32;;;3.05;;
50241;SDS011;36126;43.222;27.874;2022-07-23T14:19:29;4.28;;;2.80;;
50241;SDS011;36126;43.222;27.874;2022-07-23T14:21:55;10.45;;;3.03;;
50241;SDS011;36126;43.222;27.874;2022-07-23T14:24:20;7.80;;;3.30;;
50241;SDS011;36126;43.222;27.874;2022-07-23T14:26:46;8.43;;;3.15;;
50241;SDS011;36126;43.222;27.874;2022-07-23T14:29:11;6.05;;;3.10;;
50241;SDS011;36126;43.222;27.874;2022-07-23T14:31:37;5.43;;;3.10;;
50241;SDS011;36126;43.222;27.874;2022-07-23T14:34:03;5.30;;;3.20;;
50241;SDS011;36126;43.222;27.874;2022-07-23T14:36:28;15.25;;;8.38;;
50241;SDS011;36126;43.222;27.874;2022-07-23T14:38:54;13.90;;;6.47;;
50241;SDS011;36126;43.222;27.874;2022-07-23T14:41:20;8.43;;;3.50;;
50241;SDS011;36126;43.222;27.874;2022-07-23T14:43:45;4.40;;;3.15;;
50241;SDS011;36126;43.222;27.874;2022-07-23T14:46:11;8.80;;;3.65;;
50241;SDS011;36126;43.222;27.874;2022-07-23T14:48:38;6.45;;;3.70;;
50241;SDS011;36126;43.222;27.874;2022-07-23T14:51:03;5.28;;;3.58;;
50241;SDS011;36126;43.222;27.874;2022-07-23T14:53:29;5.03;;;3.63;;
50241;SDS011;36126;43.222;27.874;2022-07-23T14:55:55;9.73;;;4.40;;
50241;SDS011;36126;43.222;27.874;2022-07-23T14:58:22;7.05;;;4.03;;
50241;SDS011;36126;43.222;27.874;2022-07-23T15:00:48;7.10;;;3.65;;
50241;SDS011;36126;43.222;27.874;2022-07-23T15:03:14;11.07;;;4.45;;
50241;SDS011;36126;43.222;27.874;2022-07-23T15:05:39;13.45;;;4.57;;
50241;SDS011;36126;43.222;27.874;2022-07-23T15:08:05;6.80;;;4.20;;
50241;SDS011;36126;43.222;27.874;2022-07-23T15:10:31;6.05;;;3.95;;
50241;SDS011;36126;43.222;27.874;2022-07-23T15:12:56;10.25;;;3.33;;
50241;SDS011;36126;43.222;27.874;2022-07-23T15:15:21;7.60;;;3.90;;
50241;SDS011;36126;43.222;27.874;2022-07-23T15:17:47;6.90;;;3.75;;
50241;SDS011;36126;43.222;27.874;2022-07-23T15:20:13;4.97;;;4.00;;
50241;SDS011;36126;43.222;27.874;2022-07-23T15:22:39;5.40;;;3.47;;
50241;SDS011;36126;43.222;27.874;2022-07-23T15:25:04;16.65;;;4.72;;
50241;SDS011;36126;43.222;27.874;2022-07-23T15:27:31;6.90;;;4.38;;
50241;SDS011;36126;43.222;27.874;2022-07-23T15:29:56;6.15;;;3.83;;
50241;SDS011;36126;43.222;27.874;2022-07-23T15:32:22;6.45;;;3.67;;
50241;SDS011;36126;43.222;27.874;2022-07-23T15:34:50;8.55;;;4.47;;